createdAt,value
2019-05-20T00:00:54.214Z,18.87
2019-05-20T00:03:23.505Z,22.27
2019-05-20T00:05:53.081Z,17.07
2019-05-20T00:08:22.626Z,19.73
2019-05-20T00:10:51.924Z,19.60
2019-05-20T00:13:21.194Z,23.37
2019-05-20T00:15:50.555Z,18.60
2019-05-20T00:18:19.854Z,21.13
2019-05-20T00:20:49.177Z,19.30
2019-05-20T00:23:18.457Z,20.67
2019-05-20T00:25:48.012Z,21.63
2019-05-20T00:28:17.432Z,18.70
2019-05-20T00:30:46.715Z,22.10
2019-05-20T00:33:15.996Z,18.80
2019-05-20T00:35:45.399Z,19.03
2019-05-20T00:38:14.663Z,20.60
2019-05-20T00:40:43.906Z,19.47
2019-05-20T00:43:13.305Z,19.53
2019-05-20T00:45:42.766Z,19.50
2019-05-20T00:48:12.138Z,19.23
2019-05-20T00:50:41.419Z,21.00
2019-05-20T00:53:10.815Z,18.50
2019-05-20T00:55:40.629Z,23.90
2019-05-20T00:58:09.966Z,19.27
2019-05-20T01:00:39.928Z,18.27
2019-05-20T01:03:09.266Z,18.80
2019-05-20T01:05:38.541Z,19.97
2019-05-20T01:08:09.579Z,22.80
2019-05-20T01:10:38.876Z,17.33
2019-05-20T01:13:08.197Z,19.63
2019-05-20T01:15:39.183Z,20.23
2019-05-20T01:18:08.393Z,20.13
2019-05-20T01:20:37.678Z,19.53
2019-05-20T01:23:07.085Z,20.77
2019-05-20T01:25:36.390Z,19.87
2019-05-20T01:28:05.672Z,19.20
2019-05-20T01:30:35.090Z,19.77
2019-05-20T01:33:13.227Z,17.13
2019-05-20T01:35:35.330Z,20.57
2019-05-20T01:38:04.712Z,18.37
2019-05-20T01:40:33.986Z,18.20
2019-05-20T01:43:03.263Z,18.10
2019-05-20T01:45:32.683Z,16.83
2019-05-20T01:48:02.022Z,17.50
2019-05-20T01:50:31.415Z,17.97
2019-05-20T01:53:00.803Z,17.40
2019-05-20T01:55:30.103Z,17.33
2019-05-20T01:57:59.418Z,16.80
2019-05-20T02:00:28.736Z,16.73
2019-05-20T02:02:58.028Z,16.57
2019-05-20T02:05:30.387Z,18.90
2019-05-20T02:07:59.712Z,16.63
2019-05-20T02:10:28.971Z,18.53
2019-05-20T02:12:58.314Z,17.73
2019-05-20T02:15:33.882Z,17.83
2019-05-20T02:18:05.131Z,16.50
2019-05-20T02:20:34.162Z,17.53
2019-05-20T02:23:15.852Z,17.57
2019-05-20T02:25:46.971Z,20.00
2019-05-20T02:28:16.655Z,16.50
2019-05-20T02:30:50.008Z,17.23
2019-05-20T02:33:19.481Z,20.60
2019-05-20T02:35:48.786Z,19.73
2019-05-20T02:38:18.080Z,20.20
2019-05-20T02:40:47.381Z,18.77
2019-05-20T02:43:16.843Z,17.53
2019-05-20T02:45:46.130Z,16.87
2019-05-20T02:48:15.392Z,16.37
2019-05-20T02:50:44.748Z,19.80
2019-05-20T02:53:14.021Z,18.97
2019-05-20T02:55:43.499Z,16.17
2019-05-20T02:58:12.930Z,17.07
2019-05-20T03:00:42.268Z,15.80
2019-05-20T03:03:11.607Z,15.43
2019-05-20T03:05:40.930Z,15.73
2019-05-20T03:08:10.238Z,16.43
2019-05-20T03:10:39.615Z,17.53
2019-05-20T03:13:08.979Z,17.87
2019-05-20T03:15:38.239Z,18.73
2019-05-20T03:18:07.547Z,16.60
2019-05-20T03:20:36.881Z,16.10
2019-05-20T03:23:06.137Z,18.73
2019-05-20T03:25:35.516Z,14.37
2019-05-20T03:28:04.829Z,16.77
2019-05-20T03:30:34.145Z,18.17
2019-05-20T03:33:03.531Z,17.60
2019-05-20T03:35:33.005Z,16.20
2019-05-20T03:38:02.351Z,14.27
2019-05-20T03:40:32.813Z,14.93
2019-05-20T03:43:02.210Z,16.50
2019-05-20T03:45:31.506Z,16.87
2019-05-20T03:48:00.832Z,17.43
2019-05-20T03:50:30.174Z,16.67
2019-05-20T03:52:59.492Z,15.33
2019-05-20T03:55:28.764Z,16.67
2019-05-20T03:57:59.185Z,16.00
2019-05-20T04:00:56.488Z,15.90
2019-05-20T04:03:25.955Z,16.30
2019-05-20T04:05:55.228Z,16.67
2019-05-20T04:08:24.562Z,17.50
2019-05-20T04:10:53.834Z,16.43
2019-05-20T04:13:23.162Z,16.40
2019-05-20T04:15:52.428Z,19.13
2019-05-20T04:18:21.748Z,15.53
2019-05-20T04:20:51.057Z,16.20
2019-05-20T04:23:20.543Z,17.50
2019-05-20T04:25:49.942Z,15.70
2019-05-20T04:28:19.428Z,15.50
2019-05-20T04:30:48.805Z,18.53
2019-05-20T04:33:18.232Z,16.57
2019-05-20T04:35:49.764Z,16.83
2019-05-20T04:38:18.825Z,16.13
2019-05-20T04:40:48.199Z,17.13
2019-05-20T04:43:17.520Z,19.07
2019-05-20T04:45:47.008Z,16.10
2019-05-20T04:48:16.287Z,17.60
2019-05-20T04:50:45.945Z,18.87
2019-05-20T04:53:15.292Z,16.23
2019-05-20T04:55:44.593Z,15.10
2019-05-20T04:58:13.840Z,16.27
2019-05-20T05:00:52.258Z,16.37
2019-05-20T05:03:21.771Z,15.50
2019-05-20T05:05:52.782Z,16.30
2019-05-20T05:08:22.683Z,16.47
2019-05-20T05:10:52.511Z,15.20
2019-05-20T05:13:22.418Z,15.90
2019-05-20T05:15:52.260Z,15.47
2019-05-20T05:18:21.849Z,13.80
2019-05-20T05:20:51.685Z,12.43
2019-05-20T05:23:22.514Z,14.00
2019-05-20T05:25:51.916Z,12.73
2019-05-20T05:28:23.167Z,12.23
2019-05-20T05:30:52.672Z,14.40
2019-05-20T05:33:22.178Z,14.13
2019-05-20T05:35:53.762Z,14.03
2019-05-20T05:38:23.958Z,12.67
2019-05-20T05:40:53.318Z,12.93
2019-05-20T05:43:22.687Z,12.60
2019-05-20T05:45:52.118Z,13.77
2019-05-20T05:48:21.524Z,13.07
2019-05-20T05:50:50.832Z,13.20
2019-05-20T05:53:20.323Z,14.83
2019-05-20T05:55:49.746Z,13.20
2019-05-20T05:58:19.034Z,14.47
2019-05-20T06:00:49.859Z,11.40
2019-05-20T06:03:19.283Z,11.73
2019-05-20T06:05:48.741Z,11.30
2019-05-20T06:08:18.139Z,11.43
2019-05-20T06:10:48.548Z,13.97
2019-05-20T06:13:19.154Z,15.57
2019-05-20T06:15:48.403Z,12.17
2019-05-20T06:18:17.731Z,10.97
2019-05-20T06:20:47.032Z,10.73
2019-05-20T06:23:16.466Z,12.37
2019-05-20T06:25:45.723Z,11.97
2019-05-20T06:28:14.990Z,11.30
2019-05-20T06:30:45.876Z,11.50
2019-05-20T06:33:15.228Z,12.13
2019-05-20T06:35:44.882Z,12.03
2019-05-20T06:38:24.824Z,10.40
2019-05-20T06:40:54.258Z,10.57
2019-05-20T06:43:23.566Z,10.70
2019-05-20T06:45:54.009Z,11.33
2019-05-20T06:48:23.382Z,14.07
2019-05-20T06:50:52.741Z,11.73
2019-05-20T06:53:22.007Z,11.27
2019-05-20T06:55:54.305Z,14.70
2019-05-20T06:58:24.062Z,10.77
2019-05-20T07:00:56.943Z,11.93
2019-05-20T07:03:31.982Z,12.93
2019-05-20T07:05:59.863Z,11.67
2019-05-20T07:08:29.196Z,12.50
2019-05-20T07:10:58.656Z,11.83
2019-05-20T07:13:28.012Z,11.47
2019-05-20T07:15:57.303Z,13.97
2019-05-20T07:18:27.531Z,11.73
2019-05-20T07:20:57.105Z,14.00
2019-05-20T07:23:26.436Z,9.93
2019-05-20T07:25:55.705Z,8.50
2019-05-20T07:28:25.061Z,11.63
2019-05-20T07:30:55.419Z,10.33
2019-05-20T07:33:24.715Z,11.40
2019-05-20T07:35:54.084Z,9.40
2019-05-20T07:38:23.399Z,10.07
2019-05-20T07:40:52.836Z,11.43
2019-05-20T07:43:22.093Z,9.70
2019-05-20T07:45:51.738Z,8.33
2019-05-20T07:48:21.090Z,8.20
2019-05-20T07:50:51.163Z,9.70
2019-05-20T07:53:21.126Z,11.13
2019-05-20T07:56:04.916Z,9.73
2019-05-20T07:58:36.436Z,10.23
2019-05-20T08:01:05.822Z,8.87
2019-05-20T08:03:38.527Z,10.10
2019-05-20T08:06:07.708Z,10.70
2019-05-20T08:08:36.952Z,10.03
2019-05-20T08:11:06.500Z,10.27
2019-05-20T08:13:35.867Z,8.30
2019-05-20T08:16:05.408Z,9.03
2019-05-20T08:18:34.718Z,9.40
2019-05-20T08:21:04.323Z,7.90
2019-05-20T08:23:33.755Z,6.63
2019-05-20T08:26:03.095Z,8.50
2019-05-20T08:28:32.348Z,9.63
2019-05-20T08:31:01.692Z,11.37
2019-05-20T08:33:31.026Z,7.90
2019-05-20T08:36:00.407Z,6.33
2019-05-20T08:38:29.850Z,10.23
2019-05-20T08:40:59.174Z,7.00
2019-05-20T08:43:28.474Z,10.57
2019-05-20T08:45:57.866Z,6.20
2019-05-20T08:48:27.191Z,8.40
2019-05-20T08:50:56.506Z,7.77
2019-05-20T08:53:25.831Z,7.37
2019-05-20T08:55:56.769Z,6.30
2019-05-20T08:58:26.156Z,6.87
2019-05-20T09:00:55.502Z,7.93
2019-05-20T09:03:24.889Z,5.93
2019-05-20T09:05:54.232Z,6.23
2019-05-20T09:08:23.547Z,6.07
2019-05-20T09:10:52.900Z,6.23
2019-05-20T09:13:22.200Z,6.57
2019-05-20T09:15:51.526Z,4.80
2019-05-20T09:18:20.779Z,6.33
2019-05-20T09:20:52.028Z,6.23
2019-05-20T09:23:23.439Z,6.73
2019-05-20T09:25:52.901Z,5.73
2019-05-20T09:28:22.184Z,6.40
2019-05-20T09:30:52.133Z,6.53
2019-05-20T09:33:21.578Z,10.03
2019-05-20T09:35:54.762Z,5.67
2019-05-20T09:38:26.020Z,4.97
2019-05-20T09:40:55.278Z,4.97
2019-05-20T09:43:24.604Z,5.63
2019-05-20T09:46:06.420Z,9.20
2019-05-20T09:48:25.380Z,6.57
2019-05-20T09:50:54.898Z,9.23
2019-05-20T09:53:24.510Z,5.13
2019-05-20T09:55:53.814Z,7.00
2019-05-20T09:58:23.202Z,5.77
2019-05-20T10:00:52.517Z,6.73
2019-05-20T10:03:22.162Z,8.30
2019-05-20T10:05:51.549Z,7.07
2019-05-20T10:08:36.317Z,5.00
2019-05-20T10:10:51.907Z,6.30
2019-05-20T10:13:21.330Z,6.43
2019-05-20T10:15:50.750Z,5.23
2019-05-20T10:18:35.921Z,5.43
2019-05-20T10:20:51.221Z,6.63
2019-05-20T10:23:21.183Z,5.63
2019-05-20T10:25:50.502Z,5.77
2019-05-20T10:28:19.822Z,5.07
2019-05-20T10:30:51.515Z,5.60
2019-05-20T10:33:20.917Z,5.03
2019-05-20T10:35:50.464Z,5.20
2019-05-20T10:38:19.726Z,5.90
2019-05-20T10:40:49.240Z,5.80
2019-05-20T10:43:18.637Z,5.33
2019-05-20T10:45:47.909Z,5.27
2019-05-20T10:48:17.366Z,8.83
2019-05-20T10:50:46.623Z,7.77
2019-05-20T10:53:15.943Z,8.73
2019-05-20T10:55:45.599Z,5.67
2019-05-20T10:58:14.984Z,5.93
2019-05-20T11:01:01.096Z,8.67
2019-05-20T11:03:15.309Z,5.83
2019-05-20T11:05:44.960Z,6.97
2019-05-20T11:08:14.273Z,5.13
2019-05-20T11:10:43.586Z,6.07
2019-05-20T11:13:12.953Z,8.30
2019-05-20T11:15:42.396Z,4.93
2019-05-20T11:18:11.695Z,5.50
2019-05-20T11:20:42.874Z,5.33
2019-05-20T11:23:12.202Z,5.37
2019-05-20T11:25:41.608Z,5.00
2019-05-20T11:28:11.954Z,5.23
2019-05-20T11:30:41.618Z,5.03
2019-05-20T11:33:12.088Z,4.83
2019-05-20T11:35:41.479Z,5.47
2019-05-20T11:38:10.907Z,8.47
2019-05-20T11:40:41.089Z,5.53
2019-05-20T11:43:11.023Z,5.50
2019-05-20T11:45:40.456Z,8.27
2019-05-20T11:48:09.813Z,7.23
2019-05-20T11:50:39.852Z,5.83
2019-05-20T11:53:09.218Z,5.70
2019-05-20T11:55:38.499Z,7.00
2019-05-20T11:58:15.707Z,5.40
2019-05-20T12:00:38.913Z,5.90
2019-05-20T12:03:08.331Z,7.50
2019-05-20T12:05:37.766Z,5.93
2019-05-20T12:08:07.159Z,9.40
2019-05-20T12:10:36.522Z,5.40
2019-05-20T12:13:06.593Z,5.30
2019-05-20T12:15:37.824Z,7.63
2019-05-20T12:18:07.127Z,6.93
2019-05-20T12:20:38.264Z,6.60
2019-05-20T12:23:07.583Z,8.37
2019-05-20T12:25:36.912Z,10.07
2019-05-20T12:28:06.244Z,5.90
2019-05-20T12:30:35.805Z,6.97
2019-05-20T12:33:18.596Z,6.37
2019-05-20T12:35:36.584Z,6.83
2019-05-20T12:38:06.062Z,7.93
2019-05-20T12:40:35.519Z,7.00
2019-05-20T12:43:04.866Z,5.30
2019-05-20T12:45:35.393Z,7.83
2019-05-20T12:48:04.857Z,6.33
2019-05-20T12:50:34.256Z,10.37
2019-05-20T12:53:03.722Z,8.43
2019-05-20T12:55:33.447Z,5.90
2019-05-20T12:58:02.725Z,6.73
2019-05-20T13:00:32.009Z,5.97
2019-05-20T13:03:01.316Z,6.93
2019-05-20T13:05:30.613Z,10.87
2019-05-20T13:07:59.918Z,6.37
2019-05-20T13:10:32.023Z,10.20
2019-05-20T13:13:00.357Z,7.13
2019-05-20T13:15:29.786Z,7.80
2019-05-20T13:17:59.208Z,7.40
2019-05-20T13:20:28.508Z,7.50
2019-05-20T13:22:58.147Z,7.97
2019-05-20T13:25:27.598Z,7.67
2019-05-20T13:27:56.871Z,7.17
2019-05-20T13:30:26.403Z,6.73
2019-05-20T13:32:55.646Z,9.67
2019-05-20T13:35:25.043Z,6.67
2019-05-20T13:37:54.332Z,7.07
2019-05-20T13:40:25.361Z,6.53
2019-05-20T13:42:57.403Z,9.13
2019-05-20T13:45:26.904Z,7.37
2019-05-20T13:47:56.269Z,8.03
2019-05-20T13:50:25.714Z,9.47
2019-05-20T13:52:54.998Z,7.97
2019-05-20T13:55:24.357Z,8.50
2019-05-20T13:57:53.612Z,7.93
2019-05-20T14:00:23.278Z,6.50
2019-05-20T14:02:52.687Z,9.93
2019-05-20T14:05:23.140Z,8.13
2019-05-20T14:07:52.583Z,8.87
2019-05-20T14:10:21.995Z,7.90
2019-05-20T14:12:51.350Z,8.40
2019-05-20T14:15:20.767Z,9.13
2019-05-20T14:17:50.140Z,9.20
2019-05-20T14:20:19.742Z,7.53
2019-05-20T14:22:49.249Z,10.27
2019-05-20T14:25:18.482Z,7.83
2019-05-20T14:27:47.853Z,9.20
2019-05-20T14:30:17.385Z,10.37
2019-05-20T14:32:47.988Z,7.90
2019-05-20T14:35:17.410Z,9.60
2019-05-20T14:37:47.227Z,9.03
2019-05-20T14:40:16.747Z,10.93
2019-05-20T14:42:46.150Z,10.53
2019-05-20T14:45:15.575Z,11.47
2019-05-20T14:47:44.862Z,10.77
2019-05-20T14:50:14.604Z,13.27
2019-05-20T14:52:46.959Z,13.77
2019-05-20T14:55:16.196Z,16.13
2019-05-20T14:57:45.766Z,13.03
2019-05-20T15:00:15.420Z,14.67
2019-05-20T15:02:44.737Z,17.70
2019-05-20T15:05:13.990Z,17.17
2019-05-20T15:07:43.327Z,15.47
2019-05-20T15:10:13.013Z,14.60
2019-05-20T15:12:42.387Z,16.17
2019-05-20T15:15:15.785Z,15.20
2019-05-20T15:17:47.360Z,16.67
2019-05-20T15:20:16.927Z,15.10
2019-05-20T15:22:48.033Z,20.00
2019-05-20T15:25:17.574Z,19.73
2019-05-20T15:27:49.784Z,27.63
2019-05-20T15:30:25.360Z,15.83
2019-05-20T15:32:59.337Z,11.10
2019-05-20T15:35:32.800Z,8.10
2019-05-20T15:38:04.510Z,7.43
2019-05-20T15:40:34.037Z,5.90
2019-05-20T15:43:03.306Z,7.90
2019-05-20T15:45:33.050Z,11.60
2019-05-20T15:48:05.523Z,14.93
2019-05-20T15:50:37.892Z,16.10
2019-05-20T15:53:12.074Z,33.63
2019-05-20T15:55:50.663Z,29.37
2019-05-20T15:58:16.093Z,39.23
2019-05-20T16:00:45.786Z,28.43
2019-05-20T16:03:15.252Z,50.53
2019-05-20T16:05:44.678Z,69.50
2019-05-20T16:08:13.991Z,68.10
2019-05-20T16:10:43.490Z,33.63
2019-05-20T16:13:12.860Z,27.20
2019-05-20T16:15:42.148Z,28.40
2019-05-20T16:18:11.568Z,27.07
2019-05-20T16:20:40.857Z,26.33
2019-05-20T16:23:10.357Z,25.03
2019-05-20T16:25:39.733Z,26.00
2019-05-20T16:28:09.001Z,31.60
2019-05-20T16:30:38.375Z,29.57
2019-05-20T16:33:07.674Z,47.37
2019-05-20T16:35:36.980Z,33.67
2019-05-20T16:38:07.516Z,31.30
2019-05-20T16:40:36.819Z,32.37
2019-05-20T16:43:06.136Z,32.50
2019-05-20T16:45:35.383Z,30.67
2019-05-20T16:48:06.248Z,39.77
2019-05-20T16:50:38.183Z,26.43
2019-05-20T16:53:07.464Z,30.10
2019-05-20T16:55:36.745Z,33.47
2019-05-20T16:58:06.484Z,26.37
2019-05-20T17:00:36.050Z,22.67
2019-05-20T17:03:05.369Z,23.33
2019-05-20T17:05:34.631Z,30.57
2019-05-20T17:08:04.023Z,23.47
2019-05-20T17:10:33.337Z,24.20
2019-05-20T17:13:03.060Z,25.73
2019-05-20T17:15:32.474Z,32.67
2019-05-20T17:18:01.775Z,24.57
2019-05-20T17:20:31.173Z,29.40
2019-05-20T17:23:01.822Z,38.03
2019-05-20T17:25:31.230Z,28.60
2019-05-20T17:28:00.638Z,32.37
2019-05-20T17:30:43.056Z,35.03
2019-05-20T17:33:00.850Z,35.17
2019-05-20T17:35:30.122Z,43.90
2019-05-20T17:37:59.555Z,52.30
2019-05-20T17:40:28.891Z,44.83
2019-05-20T17:42:58.331Z,32.10
2019-05-20T17:45:29.977Z,31.33
2019-05-20T17:48:01.688Z,45.37
2019-05-20T17:50:33.226Z,36.27
2019-05-20T17:53:02.790Z,24.80
2019-05-20T17:55:32.109Z,30.70
2019-05-20T17:58:01.396Z,27.00
2019-05-20T18:00:30.850Z,25.20
2019-05-20T18:03:00.358Z,32.33
2019-05-20T18:05:29.804Z,23.67
2019-05-20T18:07:59.375Z,22.00
2019-05-20T18:10:28.840Z,21.97
2019-05-20T18:12:58.208Z,21.73
2019-05-20T18:15:27.553Z,21.27
2019-05-20T18:17:56.855Z,17.90
2019-05-20T18:20:26.258Z,21.13
2019-05-20T18:22:56.723Z,19.20
2019-05-20T18:25:26.003Z,19.93
2019-05-20T18:27:55.454Z,22.93
2019-05-20T18:30:25.303Z,25.70
2019-05-20T18:32:54.801Z,34.60
2019-05-20T18:35:24.374Z,41.43
2019-05-20T18:37:53.710Z,53.50
2019-05-20T18:40:22.965Z,43.60
2019-05-20T18:42:52.334Z,35.13
2019-05-20T18:45:21.602Z,63.20
2019-05-20T18:47:50.977Z,50.60
2019-05-20T18:50:20.388Z,50.73
2019-05-20T18:52:49.710Z,40.60
2019-05-20T18:55:18.992Z,40.63
2019-05-20T18:57:48.253Z,46.53
2019-05-20T19:00:19.697Z,32.90
2019-05-20T19:02:49.201Z,43.03
2019-05-20T19:05:18.563Z,50.90
2019-05-20T19:07:48.534Z,38.27
2019-05-20T19:10:18.926Z,49.97
2019-05-20T19:12:48.292Z,44.67
2019-05-20T19:15:18.965Z,75.77
2019-05-20T19:17:48.366Z,80.73
2019-05-20T19:20:17.878Z,127.17
2019-05-20T19:22:48.895Z,118.00
2019-05-20T19:25:37.314Z,119.67
2019-05-20T19:27:53.701Z,99.53
2019-05-20T19:30:23.373Z,114.50
2019-05-20T19:32:52.672Z,105.07
2019-05-20T19:35:24.528Z,79.23
2019-05-20T19:37:56.456Z,97.73
2019-05-20T19:40:25.722Z,56.23
2019-05-20T19:42:55.559Z,76.37
2019-05-20T19:45:24.823Z,71.97
2019-05-20T19:47:54.673Z,51.50
2019-05-20T19:50:23.974Z,57.13
2019-05-20T19:52:53.305Z,38.53
2019-05-20T19:55:22.654Z,40.23
2019-05-20T19:57:51.888Z,70.40
2019-05-20T20:00:21.348Z,39.80
2019-05-20T20:02:50.899Z,51.20
2019-05-20T20:05:20.176Z,31.97
2019-05-20T20:07:51.338Z,38.67
2019-05-20T20:10:20.719Z,68.27
2019-05-20T20:12:50.063Z,56.17
2019-05-20T20:15:20.123Z,57.83
2019-05-20T20:17:49.385Z,56.73
2019-05-20T20:20:19.019Z,85.23
2019-05-20T20:22:50.347Z,84.13
2019-05-20T20:25:19.794Z,82.50
2019-05-20T20:27:49.076Z,72.73
2019-05-20T20:30:19.251Z,52.33
2019-05-20T20:32:48.523Z,62.63
2019-05-20T20:35:19.856Z,107.50
2019-05-20T20:37:51.090Z,90.73
2019-05-20T20:40:22.814Z,76.27
2019-05-20T20:42:54.035Z,121.03
2019-05-20T20:45:23.356Z,83.70
2019-05-20T20:47:52.654Z,140.90
2019-05-20T20:50:21.958Z,92.83
2019-05-20T20:52:51.258Z,115.00
2019-05-20T20:55:20.853Z,108.57
2019-05-20T20:57:50.217Z,114.10
2019-05-20T21:00:19.610Z,101.97
2019-05-20T21:02:53.191Z,61.13
2019-05-20T21:05:25.425Z,76.50
2019-05-20T21:07:54.735Z,60.77
2019-05-20T21:10:24.327Z,64.17
2019-05-20T21:12:55.408Z,77.13
2019-05-20T21:15:26.833Z,70.93
2019-05-20T21:17:56.162Z,69.10
2019-05-20T21:20:25.510Z,44.60
2019-05-20T21:22:54.890Z,70.87
2019-05-20T21:25:25.336Z,68.40
2019-05-20T21:27:54.669Z,40.43
2019-05-20T21:30:23.936Z,40.47
2019-05-20T21:33:07.697Z,48.33
2019-05-20T21:35:24.386Z,53.13
2019-05-20T21:37:53.677Z,52.03
2019-05-20T21:40:24.171Z,56.77
2019-05-20T21:42:54.429Z,59.50
2019-05-20T21:45:23.838Z,69.47
2019-05-20T21:47:53.191Z,60.77
2019-05-20T21:50:22.544Z,51.90
2019-05-20T21:52:53.757Z,59.43
2019-05-20T21:55:23.429Z,50.40
2019-05-20T21:57:52.660Z,51.10
2019-05-20T22:00:38.597Z,49.90
2019-05-20T22:03:07.942Z,60.17
2019-05-20T22:05:38.397Z,71.93
2019-05-20T22:08:07.814Z,90.37
2019-05-20T22:10:37.116Z,72.40
2019-05-20T22:13:06.503Z,54.17
2019-05-20T22:15:35.826Z,51.20
2019-05-20T22:18:05.201Z,58.30
2019-05-20T22:20:34.571Z,55.63
2019-05-20T22:23:26.618Z,49.60
2019-05-20T22:25:55.919Z,76.03
2019-05-20T22:28:25.260Z,109.30
2019-05-20T22:31:00.551Z,64.27
2019-05-20T22:33:39.953Z,51.87
2019-05-20T22:35:56.457Z,61.87
2019-05-20T22:38:26.776Z,50.17
2019-05-20T22:40:56.085Z,57.43
2019-05-20T22:43:25.527Z,49.37
2019-05-20T22:45:54.811Z,38.10
2019-05-20T22:48:24.079Z,35.83
2019-05-20T22:50:53.407Z,50.70
2019-05-20T22:53:22.691Z,50.70
2019-05-20T22:55:52.039Z,49.73
2019-05-20T22:58:21.434Z,43.53
2019-05-20T23:00:50.798Z,50.97
2019-05-20T23:03:20.346Z,42.77
2019-05-20T23:05:49.904Z,38.37
2019-05-20T23:08:19.300Z,46.53
2019-05-20T23:10:49.570Z,45.30
2019-05-20T23:13:18.875Z,53.63
2019-05-20T23:15:48.123Z,40.23
2019-05-20T23:18:17.502Z,37.03
2019-05-20T23:20:46.936Z,30.77
2019-05-20T23:23:16.208Z,34.10
2019-05-20T23:25:45.477Z,45.33
2019-05-20T23:28:14.943Z,88.00
2019-05-20T23:30:44.340Z,57.43
2019-05-20T23:33:13.649Z,63.13
2019-05-20T23:35:42.975Z,54.10
2019-05-20T23:38:12.239Z,65.83
2019-05-20T23:40:41.588Z,56.67
2019-05-20T23:43:10.978Z,52.30
2019-05-20T23:45:40.326Z,55.37
2019-05-20T23:48:09.594Z,84.30
2019-05-20T23:50:38.980Z,115.50
2019-05-20T23:53:08.443Z,87.73
2019-05-20T23:55:37.757Z,68.83
2019-05-20T23:58:07.042Z,149.80
